createdAt,value
2018-12-29T00:00:36.865Z,5.81
2018-12-29T00:01:36.805Z,5.75
2018-12-29T00:02:36.743Z,5.77
2018-12-29T00:03:36.677Z,5.81
2018-12-29T00:04:36.617Z,5.81
2018-12-29T00:05:36.554Z,5.81
2018-12-29T00:06:36.492Z,5.78
2018-12-29T00:07:36.429Z,5.77
2018-12-29T00:08:36.368Z,5.86
2018-12-29T00:09:36.305Z,5.83
2018-12-29T00:10:36.243Z,5.77
2018-12-29T00:11:36.181Z,5.82
2018-12-29T00:12:36.118Z,5.81
2018-12-29T00:13:36.057Z,5.74
2018-12-29T00:14:35.993Z,5.82
2018-12-29T00:15:35.932Z,5.78
2018-12-29T00:16:35.870Z,5.78
2018-12-29T00:17:35.808Z,5.75
2018-12-29T00:18:35.746Z,5.77
2018-12-29T00:19:35.685Z,5.78
2018-12-29T00:20:35.623Z,5.86
2018-12-29T00:21:35.560Z,5.77
2018-12-29T00:22:35.496Z,5.81
2018-12-29T00:23:35.435Z,5.78
2018-12-29T00:24:35.379Z,5.81
2018-12-29T00:25:35.311Z,5.77
2018-12-29T00:26:35.250Z,5.75
2018-12-29T00:27:35.186Z,5.81
2018-12-29T00:28:35.124Z,5.83
2018-12-29T00:29:35.062Z,5.83
2018-12-29T00:30:34.999Z,5.85
2018-12-29T00:31:34.941Z,5.70
2018-12-29T00:32:34.877Z,5.81
2018-12-29T00:33:34.824Z,5.83
2018-12-29T00:34:34.752Z,5.83
2018-12-29T00:35:34.689Z,5.78
2018-12-29T00:36:34.629Z,5.83
2018-12-29T00:37:34.567Z,5.81
2018-12-29T00:38:34.507Z,5.81
2018-12-29T00:39:34.440Z,5.83
2018-12-29T00:40:34.378Z,5.74
2018-12-29T00:41:34.318Z,5.81
2018-12-29T00:42:34.254Z,5.81
2018-12-29T00:43:34.192Z,5.86
2018-12-29T00:44:34.132Z,5.78
2018-12-29T00:45:34.068Z,5.78
2018-12-29T00:46:34.006Z,5.82
2018-12-29T00:47:33.943Z,5.85
2018-12-29T00:48:33.880Z,5.86
2018-12-29T00:49:33.819Z,5.77
2018-12-29T00:50:33.760Z,5.81
2018-12-29T00:51:33.695Z,5.77
2018-12-29T00:52:33.632Z,5.77
2018-12-29T00:53:33.570Z,5.82
2018-12-29T00:54:33.508Z,5.77
2018-12-29T00:55:33.445Z,5.75
2018-12-29T00:56:33.388Z,5.77
2018-12-29T00:57:33.322Z,5.81
2018-12-29T00:58:33.260Z,5.83
2018-12-29T00:59:33.197Z,5.81
2018-12-29T01:00:33.135Z,5.68
2018-12-29T01:01:33.075Z,5.85
2018-12-29T01:02:33.011Z,5.77
2018-12-29T01:03:32.952Z,5.78
2018-12-29T01:04:32.887Z,5.81
2018-12-29T01:05:32.825Z,5.75
2018-12-29T01:06:32.761Z,5.81
2018-12-29T01:07:32.699Z,5.81
2018-12-29T01:08:32.639Z,5.74
2018-12-29T01:09:32.577Z,5.71
2018-12-29T01:10:32.517Z,5.85
2018-12-29T01:11:32.452Z,5.75
2018-12-29T01:12:32.390Z,5.77
2018-12-29T01:13:32.332Z,5.67
2018-12-29T01:14:32.268Z,5.77
2018-12-29T01:15:32.205Z,5.77
2018-12-29T01:16:32.142Z,5.77
2018-12-29T01:17:32.079Z,5.77
2018-12-29T01:18:32.017Z,5.85
2018-12-29T01:19:31.955Z,5.67
2018-12-29T01:20:31.894Z,5.77
2018-12-29T01:21:31.834Z,5.71
2018-12-29T01:22:31.767Z,5.77
2018-12-29T01:23:31.705Z,5.74
2018-12-29T01:24:31.644Z,5.74
2018-12-29T01:25:31.582Z,5.74
2018-12-29T01:26:31.523Z,5.77
2018-12-29T01:27:31.459Z,5.77
2018-12-29T01:28:31.397Z,5.82
2018-12-29T01:29:31.334Z,5.81
2018-12-29T01:30:31.271Z,5.75
2018-12-29T01:31:31.209Z,5.83
2018-12-29T01:32:31.147Z,5.77
2018-12-29T01:33:31.085Z,5.81
2018-12-29T01:34:31.022Z,5.77
2018-12-29T01:35:30.960Z,5.78
2018-12-29T01:36:30.900Z,5.81
2018-12-29T01:37:30.836Z,5.77
2018-12-29T01:38:30.774Z,5.83
2018-12-29T01:39:30.711Z,5.77
2018-12-29T01:40:30.650Z,5.70
2018-12-29T01:41:30.587Z,5.78
2018-12-29T01:42:30.525Z,5.77
2018-12-29T01:43:30.465Z,5.74
2018-12-29T01:44:30.403Z,5.77
2018-12-29T01:45:30.341Z,5.77
2018-12-29T01:46:30.276Z,5.81
2018-12-29T01:47:30.215Z,5.71
2018-12-29T01:48:30.152Z,5.68
2018-12-29T01:49:30.091Z,5.78
2018-12-29T01:50:30.030Z,5.81
2018-12-29T01:51:29.967Z,5.81
2018-12-29T01:52:29.903Z,5.75
2018-12-29T01:53:29.849Z,5.78
2018-12-29T01:54:29.779Z,5.78
2018-12-29T01:55:29.720Z,5.74
2018-12-29T01:56:29.656Z,5.82
2018-12-29T01:57:29.593Z,5.74
2018-12-29T01:58:29.532Z,5.75
2018-12-29T01:59:29.468Z,5.77
2018-12-29T02:00:29.409Z,5.73
2018-12-29T02:01:29.440Z,5.74
2018-12-29T02:02:29.334Z,5.77
2018-12-29T02:03:29.219Z,5.81
2018-12-29T02:04:29.158Z,5.70
2018-12-29T02:05:29.096Z,5.74
2018-12-29T02:06:29.038Z,5.81
2018-12-29T02:07:28.971Z,5.66
2018-12-29T02:08:28.909Z,5.73
2018-12-29T02:09:28.850Z,5.75
2018-12-29T02:10:28.784Z,5.73
2018-12-29T02:11:28.722Z,5.68
2018-12-29T02:12:28.666Z,5.70
2018-12-29T02:13:28.598Z,5.81
2018-12-29T02:14:28.535Z,5.67
2018-12-29T02:15:28.474Z,5.74
2018-12-29T02:16:28.412Z,5.81
2018-12-29T02:17:28.352Z,5.74
2018-12-29T02:18:28.287Z,5.77
2018-12-29T02:19:28.226Z,5.77
2018-12-29T02:20:28.164Z,5.74
2018-12-29T02:21:28.101Z,5.71
2018-12-29T02:22:28.038Z,5.78
2018-12-29T02:23:27.977Z,5.75
2018-12-29T02:24:27.915Z,5.71
2018-12-29T02:25:27.853Z,5.74
2018-12-29T02:26:27.795Z,5.71
2018-12-29T02:27:27.733Z,5.81
2018-12-29T02:28:27.673Z,5.75
2018-12-29T02:29:27.603Z,5.74
2018-12-29T02:30:27.547Z,5.74
2018-12-29T02:31:27.478Z,5.74
2018-12-29T02:32:27.419Z,5.75
2018-12-29T02:33:27.356Z,5.71
2018-12-29T02:34:27.418Z,5.71
2018-12-29T02:35:27.231Z,5.73
2018-12-29T02:36:27.169Z,5.73
2018-12-29T02:37:27.107Z,5.73
2018-12-29T02:38:27.044Z,5.70
2018-12-29T02:39:26.993Z,5.71
2018-12-29T02:40:26.920Z,5.73
2018-12-29T02:41:26.858Z,5.71
2018-12-29T02:42:26.796Z,5.73
2018-12-29T02:43:26.737Z,5.70
2018-12-29T02:44:26.674Z,5.74
2018-12-29T02:45:33.008Z,5.77
2018-12-29T02:46:26.544Z,5.71
2018-12-29T02:47:26.483Z,5.81
2018-12-29T02:48:26.422Z,5.75
2018-12-29T02:49:26.366Z,5.71
2018-12-29T02:50:26.297Z,5.77
2018-12-29T02:51:26.247Z,5.75
2018-12-29T02:52:26.176Z,5.71
2018-12-29T02:53:26.112Z,5.78
2018-12-29T02:54:26.050Z,5.71
2018-12-29T02:55:25.986Z,5.73
2018-12-29T02:56:25.924Z,5.74
2018-12-29T02:57:25.861Z,5.77
2018-12-29T02:58:25.803Z,5.74
2018-12-29T02:59:25.749Z,5.77
2018-12-29T03:00:25.675Z,5.71
2018-12-29T03:01:25.615Z,5.73
2018-12-29T03:02:25.553Z,5.74
2018-12-29T03:03:25.489Z,5.77
2018-12-29T03:04:25.432Z,5.68
2018-12-29T03:05:25.365Z,5.77
2018-12-29T03:06:25.407Z,5.78
2018-12-29T03:07:25.242Z,5.77
2018-12-29T03:08:25.177Z,5.77
2018-12-29T03:09:25.115Z,5.77
2018-12-29T03:10:25.070Z,5.81
2018-12-29T03:11:24.992Z,5.75
2018-12-29T03:12:24.932Z,5.74
2018-12-29T03:13:24.866Z,5.75
2018-12-29T03:14:24.810Z,5.74
2018-12-29T03:15:24.745Z,5.78
2018-12-29T03:16:24.680Z,5.73
2018-12-29T03:17:24.619Z,5.77
2018-12-29T03:18:24.559Z,5.71
2018-12-29T03:19:24.494Z,5.75
2018-12-29T03:20:24.432Z,5.71
2018-12-29T03:21:24.370Z,5.74
2018-12-29T03:22:24.306Z,5.74
2018-12-29T03:23:24.248Z,5.74
2018-12-29T03:24:24.183Z,5.75
2018-12-29T03:25:24.127Z,5.77
2018-12-29T03:26:24.058Z,5.75
2018-12-29T03:27:23.999Z,5.74
2018-12-29T03:28:23.936Z,5.73
2018-12-29T03:29:23.872Z,5.71
2018-12-29T03:30:23.818Z,5.77
2018-12-29T03:31:23.750Z,5.74
2018-12-29T03:32:23.686Z,5.66
2018-12-29T03:33:23.623Z,5.71
2018-12-29T03:34:23.561Z,5.75
2018-12-29T03:35:23.499Z,5.74
2018-12-29T03:36:23.437Z,5.77
2018-12-29T03:37:23.375Z,5.74
2018-12-29T03:38:23.317Z,5.68
2018-12-29T03:39:23.253Z,5.71
2018-12-29T03:40:23.192Z,5.83
2018-12-29T03:41:23.127Z,5.75
2018-12-29T03:42:23.064Z,5.75
2018-12-29T03:43:23.189Z,5.78
2018-12-29T03:44:22.945Z,5.75
2018-12-29T03:45:22.885Z,5.73
2018-12-29T03:46:22.815Z,5.71
2018-12-29T03:47:22.757Z,5.75
2018-12-29T03:48:22.691Z,5.71
2018-12-29T03:49:22.629Z,5.71
2018-12-29T03:50:22.565Z,5.74
2018-12-29T03:51:22.505Z,5.73
2018-12-29T03:52:22.441Z,5.74
2018-12-29T03:53:22.382Z,5.74
2018-12-29T03:54:22.319Z,5.75
2018-12-29T03:55:22.256Z,5.74
2018-12-29T03:56:22.193Z,5.74
2018-12-29T03:57:22.133Z,5.71
2018-12-29T03:58:22.072Z,5.68
2018-12-29T03:59:22.008Z,5.73
2018-12-29T04:00:21.945Z,5.74
2018-12-29T04:01:21.882Z,5.77
2018-12-29T04:02:21.821Z,5.71
2018-12-29T04:03:21.759Z,5.75
2018-12-29T04:04:21.695Z,5.78
2018-12-29T04:05:21.634Z,5.74
2018-12-29T04:06:21.572Z,5.74
2018-12-29T04:07:21.509Z,5.82
2018-12-29T04:08:21.447Z,5.77
2018-12-29T04:09:21.385Z,5.74
2018-12-29T04:10:21.323Z,5.75
2018-12-29T04:11:21.260Z,5.71
2018-12-29T04:12:21.201Z,5.77
2018-12-29T04:13:21.139Z,5.73
2018-12-29T04:14:21.082Z,5.74
2018-12-29T04:15:21.014Z,5.71
2018-12-29T04:16:20.951Z,5.71
2018-12-29T04:17:20.888Z,5.73
2018-12-29T04:18:20.844Z,5.74
2018-12-29T04:19:20.762Z,5.75
2018-12-29T04:20:20.701Z,5.70
2018-12-29T04:21:20.640Z,5.75
2018-12-29T04:22:20.575Z,5.73
2018-12-29T04:23:20.514Z,5.74
2018-12-29T04:24:20.454Z,5.74
2018-12-29T04:25:20.391Z,5.70
2018-12-29T04:26:20.331Z,5.77
2018-12-29T04:27:20.265Z,5.74
2018-12-29T04:28:20.205Z,5.75
2018-12-29T04:29:20.141Z,5.75
2018-12-29T04:30:20.078Z,5.73
2018-12-29T04:31:20.016Z,5.71
2018-12-29T04:32:22.747Z,5.73
2018-12-29T04:33:19.893Z,5.77
2018-12-29T04:34:19.829Z,5.71
2018-12-29T04:35:19.768Z,5.71
2018-12-29T04:36:19.706Z,5.75
2018-12-29T04:37:19.652Z,5.74
2018-12-29T04:38:19.581Z,5.78
2018-12-29T04:39:19.519Z,5.78
2018-12-29T04:40:19.457Z,5.73
2018-12-29T04:41:19.396Z,5.74
2018-12-29T04:42:19.340Z,5.71
2018-12-29T04:43:19.270Z,5.75
2018-12-29T04:44:19.208Z,5.74
2018-12-29T04:45:19.147Z,5.73
2018-12-29T04:46:19.083Z,5.70
2018-12-29T04:47:19.022Z,5.74
2018-12-29T04:48:18.960Z,5.73
2018-12-29T04:49:18.972Z,5.74
2018-12-29T04:50:18.835Z,5.71
2018-12-29T04:51:18.775Z,5.70
2018-12-29T04:52:18.711Z,5.75
2018-12-29T04:53:18.649Z,5.74
2018-12-29T04:54:18.587Z,5.73
2018-12-29T04:55:18.525Z,5.73
2018-12-29T04:56:18.462Z,5.74
2018-12-29T04:57:18.400Z,5.71
2018-12-29T04:58:18.338Z,5.73
2018-12-29T04:59:18.275Z,5.78
2018-12-29T05:00:18.219Z,5.75
2018-12-29T05:01:18.160Z,5.75
2018-12-29T05:02:18.093Z,5.74
2018-12-29T05:03:18.026Z,5.71
2018-12-29T05:04:17.964Z,5.73
2018-12-29T05:05:17.903Z,5.74
2018-12-29T05:06:17.839Z,5.74
2018-12-29T05:07:17.778Z,5.74
2018-12-29T05:08:17.716Z,5.74
2018-12-29T05:09:17.654Z,5.77
2018-12-29T05:10:17.603Z,5.71
2018-12-29T05:11:17.528Z,5.71
2018-12-29T05:12:17.472Z,5.68
2018-12-29T05:13:17.408Z,5.81
2018-12-29T05:14:17.342Z,5.73
2018-12-29T05:15:17.281Z,5.71
2018-12-29T05:16:17.218Z,5.73
2018-12-29T05:17:17.157Z,5.75
2018-12-29T05:18:17.092Z,5.71
2018-12-29T05:19:17.032Z,5.71
2018-12-29T05:20:16.969Z,5.74
2018-12-29T05:21:16.908Z,5.74
2018-12-29T05:22:16.844Z,5.73
2018-12-29T05:23:16.784Z,5.75
2018-12-29T05:24:16.722Z,5.75
2018-12-29T05:25:16.663Z,5.68
2018-12-29T05:26:16.596Z,5.78
2018-12-29T05:27:16.534Z,5.77
2018-12-29T05:28:16.472Z,5.74
2018-12-29T05:29:16.410Z,5.74
2018-12-29T05:30:16.348Z,5.71
2018-12-29T05:31:16.285Z,5.78
2018-12-29T05:32:16.224Z,5.74
2018-12-29T05:33:16.164Z,5.68
2018-12-29T05:34:16.099Z,5.70
2018-12-29T05:35:16.044Z,5.75
2018-12-29T05:36:15.975Z,5.81
2018-12-29T05:37:15.914Z,5.73
2018-12-29T05:38:15.850Z,5.74
2018-12-29T05:39:15.788Z,5.73
2018-12-29T05:40:15.725Z,5.74
2018-12-29T05:41:15.663Z,5.71
2018-12-29T05:42:15.600Z,5.74
2018-12-29T05:43:15.540Z,5.74
2018-12-29T05:44:15.477Z,5.73
2018-12-29T05:45:15.417Z,5.75
2018-12-29T05:46:20.393Z,5.81
2018-12-29T05:47:15.290Z,5.70
2018-12-29T05:48:15.233Z,5.71
2018-12-29T05:49:15.166Z,5.74
2018-12-29T05:50:15.104Z,5.73
2018-12-29T05:51:15.048Z,5.68
2018-12-29T05:52:14.978Z,5.74
2018-12-29T05:53:14.942Z,5.75
2018-12-29T05:54:14.855Z,5.74
2018-12-29T05:55:14.806Z,5.74
2018-12-29T05:56:14.735Z,5.70
2018-12-29T05:57:14.670Z,5.74
2018-12-29T05:58:14.606Z,5.78
2018-12-29T05:59:14.545Z,5.68
2018-12-29T06:00:14.484Z,5.74
2018-12-29T06:01:14.423Z,5.71
2018-12-29T06:02:14.358Z,5.71
2018-12-29T06:03:14.295Z,5.73
2018-12-29T06:04:14.235Z,5.74
2018-12-29T06:05:14.176Z,5.74
2018-12-29T06:06:14.108Z,5.78
2018-12-29T06:07:14.046Z,5.75
2018-12-29T06:08:13.986Z,5.81
2018-12-29T06:09:13.922Z,5.77
2018-12-29T06:10:13.859Z,5.68
2018-12-29T06:11:13.800Z,5.74
2018-12-29T06:12:13.736Z,5.71
2018-12-29T06:13:13.676Z,5.74
2018-12-29T06:14:13.612Z,5.74
2018-12-29T06:15:13.552Z,5.73
2018-12-29T06:16:13.488Z,5.71
2018-12-29T06:17:13.425Z,5.74
2018-12-29T06:18:13.362Z,5.74
2018-12-29T06:19:13.300Z,5.68
2018-12-29T06:20:13.238Z,5.74
2018-12-29T06:21:13.176Z,5.73
2018-12-29T06:22:13.115Z,5.73
2018-12-29T06:23:13.052Z,5.74
2018-12-29T06:24:12.988Z,5.71
2018-12-29T06:25:12.927Z,5.73
2018-12-29T06:26:12.864Z,5.75
2018-12-29T06:27:12.802Z,5.73
2018-12-29T06:28:12.741Z,5.71
2018-12-29T06:29:12.679Z,5.71
2018-12-29T06:30:12.615Z,5.74
2018-12-29T06:31:12.554Z,5.73
2018-12-29T06:32:12.493Z,5.81
2018-12-29T06:33:12.431Z,5.71
2018-12-29T06:34:12.368Z,5.74
2018-12-29T06:35:12.307Z,5.71
2018-12-29T06:36:12.244Z,5.75
2018-12-29T06:37:12.181Z,5.77
2018-12-29T06:38:12.118Z,5.74
2018-12-29T06:39:12.058Z,5.75
2018-12-29T06:40:11.994Z,5.75
2018-12-29T06:41:11.933Z,5.74
2018-12-29T06:42:11.869Z,5.75
2018-12-29T06:43:11.883Z,5.74
2018-12-29T06:44:11.749Z,5.81
2018-12-29T06:45:11.684Z,5.81
2018-12-29T06:46:11.621Z,5.74
2018-12-29T06:47:11.559Z,5.74
2018-12-29T06:48:11.501Z,5.75
2018-12-29T06:49:11.435Z,5.77
2018-12-29T06:50:11.373Z,5.71
2018-12-29T06:51:11.310Z,5.74
2018-12-29T06:52:11.248Z,5.77
2018-12-29T06:53:11.186Z,5.78
2018-12-29T06:54:11.123Z,5.73
2018-12-29T06:55:11.060Z,5.74
2018-12-29T06:56:10.999Z,5.74
2018-12-29T06:57:10.938Z,5.73
2018-12-29T06:58:10.876Z,5.74
2018-12-29T06:59:10.813Z,5.68
2018-12-29T07:00:10.752Z,5.74
2018-12-29T07:01:10.688Z,5.73
2018-12-29T07:02:10.625Z,5.70
2018-12-29T07:03:10.563Z,5.73
2018-12-29T07:04:10.504Z,5.71
2018-12-29T07:05:10.441Z,5.75
2018-12-29T07:06:10.377Z,5.68
2018-12-29T07:07:10.314Z,5.74
2018-12-29T07:08:10.254Z,5.70
2018-12-29T07:09:10.191Z,5.73
2018-12-29T07:10:10.151Z,5.71
2018-12-29T07:11:10.068Z,5.74
2018-12-29T07:12:10.007Z,5.68
2018-12-29T07:13:09.942Z,5.75
2018-12-29T07:14:09.879Z,5.73
2018-12-29T07:15:09.817Z,5.74
2018-12-29T07:16:09.756Z,5.68
2018-12-29T07:17:09.694Z,5.74
2018-12-29T07:18:09.630Z,5.78
2018-12-29T07:19:09.571Z,5.75
2018-12-29T07:20:09.507Z,5.75
2018-12-29T07:21:09.447Z,5.74
2018-12-29T07:22:09.381Z,5.68
2018-12-29T07:23:09.319Z,5.73
2018-12-29T07:24:09.258Z,5.74
2018-12-29T07:25:09.200Z,5.68
2018-12-29T07:26:09.134Z,5.71
2018-12-29T07:27:09.071Z,5.75
2018-12-29T07:28:09.009Z,5.71
2018-12-29T07:29:08.955Z,5.74
2018-12-29T07:30:08.885Z,5.74
2018-12-29T07:31:08.822Z,5.75
2018-12-29T07:32:08.762Z,5.77
2018-12-29T07:33:08.698Z,5.73
2018-12-29T07:34:08.637Z,5.70
2018-12-29T07:35:08.575Z,5.73
2018-12-29T07:36:08.511Z,5.75
2018-12-29T07:37:08.450Z,5.73
2018-12-29T07:38:08.386Z,5.71
2018-12-29T07:39:08.327Z,5.75
2018-12-29T07:40:08.263Z,5.70
2018-12-29T07:41:08.200Z,5.74
2018-12-29T07:42:08.136Z,5.74
2018-12-29T07:43:08.081Z,5.74
2018-12-29T07:44:08.013Z,5.74
2018-12-29T07:45:07.958Z,5.71
2018-12-29T07:46:07.892Z,5.71
2018-12-29T07:47:07.834Z,5.71
2018-12-29T07:48:07.768Z,5.77
2018-12-29T07:49:07.703Z,5.77
2018-12-29T07:50:07.641Z,5.71
2018-12-29T07:51:07.578Z,5.78
2018-12-29T07:52:07.516Z,5.77
2018-12-29T07:53:07.458Z,5.71
2018-12-29T07:54:07.391Z,5.73
2018-12-29T07:55:07.333Z,5.74
2018-12-29T07:56:07.267Z,5.71
2018-12-29T07:57:07.207Z,5.73
2018-12-29T07:58:07.142Z,5.73
2018-12-29T07:59:07.080Z,5.73
2018-12-29T08:00:07.024Z,5.74
2018-12-29T08:01:06.956Z,5.74
2018-12-29T08:02:06.894Z,5.74
2018-12-29T08:03:06.834Z,5.75
2018-12-29T08:04:06.768Z,5.73
2018-12-29T08:05:06.706Z,5.74
2018-12-29T08:06:06.643Z,5.74
2018-12-29T08:07:06.589Z,5.81
2018-12-29T08:08:06.519Z,5.78
2018-12-29T08:09:06.458Z,5.74
2018-12-29T08:10:06.395Z,5.74
2018-12-29T08:11:06.332Z,5.74
2018-12-29T08:12:06.270Z,5.71
2018-12-29T08:13:06.209Z,5.75
2018-12-29T08:14:06.147Z,5.75
2018-12-29T08:15:06.086Z,5.78
2018-12-29T08:16:06.022Z,5.75
2018-12-29T08:17:05.959Z,5.73
2018-12-29T08:18:05.899Z,5.75
2018-12-29T08:19:05.835Z,5.73
2018-12-29T08:20:05.774Z,5.78
2018-12-29T08:21:05.711Z,5.71
2018-12-29T08:22:05.650Z,5.75
2018-12-29T08:23:05.586Z,5.73
2018-12-29T08:24:05.526Z,5.68
2018-12-29T08:25:05.463Z,5.81
2018-12-29T08:26:05.401Z,5.78
2018-12-29T08:27:05.381Z,5.71
2018-12-29T08:28:05.277Z,5.73
2018-12-29T08:29:05.213Z,5.77
2018-12-29T08:30:05.151Z,5.70
2018-12-29T08:31:05.089Z,5.81
2018-12-29T08:32:05.031Z,5.74
2018-12-29T08:33:04.965Z,5.67
2018-12-29T08:34:04.901Z,5.68
2018-12-29T08:35:04.841Z,5.77
2018-12-29T08:36:04.777Z,5.73
2018-12-29T08:37:04.720Z,5.83
2018-12-29T08:38:04.654Z,5.74
2018-12-29T08:39:04.591Z,5.75
2018-12-29T08:40:04.529Z,5.75
2018-12-29T08:41:04.471Z,5.70
2018-12-29T08:42:04.405Z,5.77
2018-12-29T08:43:04.344Z,5.81
2018-12-29T08:44:04.280Z,5.77
2018-12-29T08:45:04.219Z,5.78
2018-12-29T08:46:04.160Z,5.75
2018-12-29T08:47:04.689Z,5.78
2018-12-29T08:48:04.035Z,5.83
2018-12-29T08:49:03.969Z,5.81
2018-12-29T08:50:03.910Z,5.74
2018-12-29T08:51:03.845Z,5.82
2018-12-29T08:52:03.782Z,5.82
2018-12-29T08:53:03.721Z,5.83
2018-12-29T08:54:03.658Z,5.81
2018-12-29T08:55:03.596Z,5.70
2018-12-29T08:56:03.533Z,5.82
2018-12-29T08:57:03.480Z,5.81
2018-12-29T08:58:03.409Z,5.78
2018-12-29T08:59:03.348Z,5.83
2018-12-29T09:00:03.289Z,5.81
2018-12-29T09:01:03.224Z,5.88
2018-12-29T09:02:03.161Z,5.82
2018-12-29T09:03:03.098Z,5.82
2018-12-29T09:04:03.040Z,5.78
2018-12-29T09:05:02.975Z,5.81
2018-12-29T09:06:02.911Z,5.81
2018-12-29T09:07:02.852Z,5.83
2018-12-29T09:08:02.787Z,5.70
2018-12-29T09:09:02.726Z,5.86
2018-12-29T09:10:02.663Z,5.81
2018-12-29T09:11:02.604Z,5.81
2018-12-29T09:12:02.542Z,5.78
2018-12-29T09:13:02.477Z,5.82
2018-12-29T09:14:02.414Z,5.77
2018-12-29T09:15:02.356Z,5.81
2018-12-29T09:16:02.290Z,5.85
2018-12-29T09:17:02.229Z,5.73
2018-12-29T09:18:02.166Z,5.82
2018-12-29T09:19:02.103Z,5.86
2018-12-29T09:20:02.042Z,5.75
2018-12-29T09:21:01.979Z,5.88
2018-12-29T09:22:01.921Z,5.78
2018-12-29T09:23:01.854Z,5.83
2018-12-29T09:24:01.793Z,5.89
2018-12-29T09:25:01.732Z,5.78
2018-12-29T09:26:01.668Z,5.85
2018-12-29T09:27:01.605Z,5.82
2018-12-29T09:28:01.545Z,5.83
2018-12-29T09:29:01.503Z,5.85
2018-12-29T09:30:01.422Z,5.89
2018-12-29T09:31:01.363Z,5.75
2018-12-29T09:32:01.299Z,5.78
2018-12-29T09:33:01.234Z,5.82
2018-12-29T09:34:01.170Z,5.85
2018-12-29T09:35:01.123Z,5.85
2018-12-29T09:36:01.046Z,5.86
2018-12-29T09:37:00.984Z,5.83
2018-12-29T09:38:00.921Z,5.88
2018-12-29T09:39:00.865Z,5.81
2018-12-29T09:40:00.798Z,5.82
2018-12-29T09:41:00.742Z,5.77
2018-12-29T09:42:00.672Z,5.82
2018-12-29T09:43:00.611Z,5.85
2018-12-29T09:44:00.548Z,5.77
2018-12-29T09:45:00.487Z,5.81
2018-12-29T09:46:00.423Z,5.81
2018-12-29T09:47:00.361Z,5.81
2018-12-29T09:48:00.298Z,5.85
2018-12-29T09:49:00.241Z,5.83
2018-12-29T09:50:00.179Z,5.81
2018-12-29T09:51:00.113Z,5.83
2018-12-29T09:52:00.050Z,5.83
2018-12-29T09:52:59.993Z,5.85
2018-12-29T09:53:59.927Z,5.92
2018-12-29T09:54:59.864Z,5.77
2018-12-29T09:55:59.802Z,5.85
2018-12-29T09:56:59.752Z,5.85
2018-12-29T09:57:59.677Z,5.88
2018-12-29T09:58:59.619Z,5.78
2018-12-29T09:59:59.554Z,5.81
2018-12-29T10:00:59.491Z,5.82
2018-12-29T10:01:59.427Z,5.92
2018-12-29T10:02:59.366Z,5.82
2018-12-29T10:03:59.306Z,5.92
2018-12-29T10:04:59.244Z,5.83
2018-12-29T10:05:59.179Z,5.82
2018-12-29T10:06:59.117Z,5.89
2018-12-29T10:07:59.055Z,5.92
2018-12-29T10:08:59.026Z,5.89
2018-12-29T10:09:58.931Z,5.85
2018-12-29T10:10:58.870Z,5.91
2018-12-29T10:11:58.809Z,5.88
2018-12-29T10:12:58.764Z,5.88
2018-12-29T10:13:58.686Z,5.88
2018-12-29T10:14:58.631Z,5.89
2018-12-29T10:15:58.558Z,5.89
2018-12-29T10:16:58.496Z,5.85
2018-12-29T10:17:58.433Z,5.92
2018-12-29T10:18:58.372Z,5.86
2018-12-29T10:19:58.309Z,5.85
2018-12-29T10:20:58.255Z,5.86
2018-12-29T10:21:58.185Z,5.83
2018-12-29T10:22:58.126Z,5.88
2018-12-29T10:23:58.060Z,5.83
2018-12-29T10:24:57.998Z,5.89
2018-12-29T10:25:57.934Z,5.88
2018-12-29T10:26:57.875Z,5.86
2018-12-29T10:27:57.813Z,5.85
2018-12-29T10:28:57.751Z,5.91
2018-12-29T10:29:57.688Z,5.91
2018-12-29T10:30:57.626Z,5.91
2018-12-29T10:31:57.564Z,5.91
2018-12-29T10:32:57.501Z,5.91
2018-12-29T10:33:57.440Z,5.93
2018-12-29T10:34:57.378Z,5.83
2018-12-29T10:35:57.314Z,5.92
2018-12-29T10:36:57.253Z,5.86
2018-12-29T10:37:57.189Z,5.83
2018-12-29T10:38:57.127Z,5.83
2018-12-29T10:39:57.066Z,5.88
2018-12-29T10:40:57.005Z,5.91
2018-12-29T10:41:56.943Z,5.92
2018-12-29T10:42:56.879Z,5.92
2018-12-29T10:43:56.818Z,5.86
2018-12-29T10:44:56.756Z,5.85
2018-12-29T10:45:56.703Z,5.85
2018-12-29T10:46:56.630Z,5.85
2018-12-29T10:47:56.568Z,5.92
2018-12-29T10:48:56.507Z,5.92
2018-12-29T10:49:56.445Z,5.85
2018-12-29T10:50:56.381Z,5.89
2018-12-29T10:51:56.319Z,5.86
2018-12-29T10:52:56.261Z,5.89
2018-12-29T10:53:56.194Z,5.83
2018-12-29T10:54:56.133Z,5.91
2018-12-29T10:55:56.071Z,5.83
2018-12-29T10:56:56.011Z,5.82
2018-12-29T10:57:55.947Z,5.88
2018-12-29T10:58:55.885Z,5.88
2018-12-29T10:59:55.822Z,5.86
2018-12-29T11:00:55.762Z,5.86
2018-12-29T11:01:55.697Z,5.82
2018-12-29T11:02:55.635Z,5.82
2018-12-29T11:03:55.575Z,5.85
2018-12-29T11:04:55.511Z,5.83
2018-12-29T11:05:55.448Z,5.92
2018-12-29T11:06:55.387Z,5.92
2018-12-29T11:07:55.333Z,5.92
2018-12-29T11:08:55.263Z,5.96
2018-12-29T11:09:55.205Z,5.95
2018-12-29T11:10:55.139Z,5.89
2018-12-29T11:11:55.080Z,5.93
2018-12-29T11:12:55.015Z,5.96
2018-12-29T11:13:54.951Z,5.92
2018-12-29T11:14:54.893Z,5.98
2018-12-29T11:15:54.831Z,5.95
2018-12-29T11:16:54.765Z,5.95
2018-12-29T11:17:55.328Z,5.95
2018-12-29T11:18:54.641Z,5.98
2018-12-29T11:19:54.579Z,5.93
2018-12-29T11:20:54.516Z,6.00
2018-12-29T11:21:54.454Z,5.95
2018-12-29T11:22:54.397Z,5.93
2018-12-29T11:23:54.329Z,5.98
2018-12-29T11:24:54.269Z,6.00
2018-12-29T11:25:54.206Z,5.96
2018-12-29T11:26:54.146Z,5.95
2018-12-29T11:27:54.159Z,5.96
2018-12-29T11:28:54.038Z,5.95
2018-12-29T11:29:53.960Z,5.95
2018-12-29T11:30:53.895Z,6.01
2018-12-29T11:31:53.833Z,6.00
2018-12-29T11:32:53.776Z,5.93
2018-12-29T11:33:53.709Z,5.93
2018-12-29T11:34:53.648Z,6.03
2018-12-29T11:35:53.584Z,5.96
2018-12-29T11:36:53.522Z,6.00
2018-12-29T11:37:53.459Z,5.95
2018-12-29T11:38:53.408Z,5.95
2018-12-29T11:39:53.341Z,6.04
2018-12-29T11:40:53.275Z,6.00
2018-12-29T11:41:53.215Z,6.06
2018-12-29T11:42:53.150Z,5.95
2018-12-29T11:43:53.090Z,6.01
2018-12-29T11:44:53.025Z,5.96
2018-12-29T11:45:52.963Z,6.04
2018-12-29T11:46:52.902Z,6.01
2018-12-29T11:47:52.839Z,6.01
2018-12-29T11:48:52.777Z,5.95
2018-12-29T11:49:52.718Z,6.03
2018-12-29T11:50:52.653Z,6.07
2018-12-29T11:51:52.591Z,6.04
2018-12-29T11:52:52.532Z,5.95
2018-12-29T11:53:52.466Z,6.00
2018-12-29T11:54:52.412Z,6.07
2018-12-29T11:55:52.347Z,6.01
2018-12-29T11:56:52.284Z,6.00
2018-12-29T11:57:52.219Z,5.95
2018-12-29T11:58:52.158Z,6.01
2018-12-29T11:59:52.095Z,5.95
2018-12-29T12:00:52.034Z,6.01
2018-12-29T12:01:51.976Z,5.98
2018-12-29T12:02:51.908Z,5.95
2018-12-29T12:03:51.851Z,5.98
2018-12-29T12:04:51.785Z,6.01
2018-12-29T12:05:51.722Z,6.01
2018-12-29T12:06:51.658Z,6.01
2018-12-29T12:07:51.598Z,6.00
2018-12-29T12:08:52.342Z,6.01
2018-12-29T12:09:51.471Z,5.96
2018-12-29T12:10:51.410Z,6.04
2018-12-29T12:11:51.348Z,6.04
2018-12-29T12:12:51.285Z,5.98
2018-12-29T12:13:51.224Z,5.98
2018-12-29T12:14:51.163Z,5.98
2018-12-29T12:15:51.100Z,6.06
2018-12-29T12:16:51.037Z,6.03
2018-12-29T12:17:57.314Z,5.98
2018-12-29T12:18:50.914Z,6.01
2018-12-29T12:19:51.841Z,6.01
2018-12-29T12:20:50.789Z,6.01
2018-12-29T12:21:50.728Z,6.07
2018-12-29T12:22:50.665Z,6.01
2018-12-29T12:23:50.604Z,6.10
2018-12-29T12:24:50.541Z,6.01
2018-12-29T12:25:50.478Z,6.01
2018-12-29T12:26:50.417Z,6.03
2018-12-29T12:27:50.355Z,5.98
2018-12-29T12:28:50.292Z,6.03
2018-12-29T12:29:50.231Z,6.04
2018-12-29T12:30:50.169Z,6.03
2018-12-29T12:31:50.112Z,6.01
2018-12-29T12:32:50.049Z,6.01
2018-12-29T12:33:49.983Z,5.98
2018-12-29T12:34:49.923Z,5.96
2018-12-29T12:35:49.860Z,6.01
2018-12-29T12:36:49.797Z,6.01
2018-12-29T12:37:49.732Z,6.03
2018-12-29T12:38:49.672Z,6.06
2018-12-29T12:39:49.613Z,6.04
2018-12-29T12:40:49.548Z,6.06
2018-12-29T12:41:49.485Z,6.00
2018-12-29T12:42:49.423Z,6.00
2018-12-29T12:43:49.364Z,6.00
2018-12-29T12:44:49.298Z,6.06
2018-12-29T12:45:49.236Z,6.01
2018-12-29T12:46:49.176Z,5.98
2018-12-29T12:47:49.134Z,6.04
2018-12-29T12:48:49.050Z,5.98
2018-12-29T12:49:48.988Z,6.07
2018-12-29T12:50:48.926Z,6.10
2018-12-29T12:51:48.863Z,6.04
2018-12-29T12:52:48.804Z,6.04
2018-12-29T12:53:48.741Z,6.04
2018-12-29T12:54:48.680Z,5.98
2018-12-29T12:55:48.615Z,6.10
2018-12-29T12:56:48.554Z,6.03
2018-12-29T12:57:48.493Z,6.01
2018-12-29T12:58:48.429Z,5.98
2018-12-29T12:59:48.368Z,6.10
2018-12-29T13:00:48.305Z,6.03
2018-12-29T13:01:48.242Z,6.06
2018-12-29T13:02:48.182Z,6.11
2018-12-29T13:03:48.119Z,6.11
2018-12-29T13:04:48.058Z,6.04
2018-12-29T13:05:47.997Z,6.09
2018-12-29T13:06:47.933Z,6.10
2018-12-29T13:07:47.871Z,6.09
2018-12-29T13:08:47.810Z,6.03
2018-12-29T13:09:47.746Z,6.04
2018-12-29T13:10:47.683Z,6.04
2018-12-29T13:11:47.623Z,6.03
2018-12-29T13:12:47.568Z,6.00
2018-12-29T13:13:47.497Z,5.98
2018-12-29T13:14:47.435Z,6.04
2018-12-29T13:15:47.374Z,6.04
2018-12-29T13:16:47.311Z,6.03
2018-12-29T13:17:47.249Z,6.07